createdAt,value
2024-05-09T00:01:30.306Z,100309.39
2024-05-09T00:06:33.173Z,100312.43
2024-05-09T00:11:36.296Z,100313.20
2024-05-09T00:16:39.892Z,100309.96
2024-05-09T00:21:45.837Z,100307.61
2024-05-09T00:26:48.736Z,100314.35
2024-05-09T00:31:51.983Z,100315.84
2024-05-09T00:36:55.038Z,100320.35
2024-05-09T00:42:00.216Z,100321.41
2024-05-09T00:47:03.976Z,100314.38
2024-05-09T00:52:07.643Z,100307.86
2024-05-09T00:57:10.675Z,100305.09
2024-05-09T01:02:16.250Z,100307.02
2024-05-09T01:07:19.123Z,100306.85
2024-05-09T01:12:22.070Z,100305.84
2024-05-09T01:17:25.752Z,100306.14
2024-05-09T01:22:30.635Z,100310.59
2024-05-09T01:27:33.476Z,100307.69
2024-05-09T01:32:36.430Z,100301.73
2024-05-09T01:37:40.300Z,100301.08
2024-05-09T01:42:42.967Z,100300.61
2024-05-09T01:47:46.038Z,100309.41
2024-05-09T01:52:49.155Z,100309.13
2024-05-09T01:57:52.060Z,100311.80
2024-05-09T02:02:55.022Z,100311.86
2024-05-09T02:07:58.154Z,100313.03
2024-05-09T02:13:01.253Z,100318.19
2024-05-09T02:18:05.078Z,100320.13
2024-05-09T02:23:09.568Z,100328.14
2024-05-09T02:28:12.706Z,100327.80
2024-05-09T02:33:16.083Z,100327.56
2024-05-09T02:38:19.137Z,100328.41
2024-05-09T02:43:22.402Z,100328.96
2024-05-09T02:48:25.387Z,100332.76
2024-05-09T02:53:28.420Z,100335.47
2024-05-09T02:58:31.377Z,100333.92
2024-05-09T03:03:34.479Z,100329.53
2024-05-09T03:08:37.659Z,100328.26
2024-05-09T03:13:41.754Z,100328.58
2024-05-09T03:18:45.418Z,100330.63
2024-05-09T03:23:48.314Z,100327.83
2024-05-09T03:28:51.196Z,100328.98
2024-05-09T03:33:54.177Z,100332.41
2024-05-09T03:38:57.124Z,100334.41
2024-05-09T03:44:00.169Z,100337.75
2024-05-09T03:49:03.348Z,100343.14
2024-05-09T03:54:06.583Z,100344.05
2024-05-09T03:59:09.431Z,100340.95
2024-05-09T04:04:12.445Z,100336.24
2024-05-09T04:09:15.371Z,100328.08
2024-05-09T04:14:18.222Z,100330.40
2024-05-09T04:19:21.283Z,100332.57
2024-05-09T04:24:24.445Z,100343.55
2024-05-09T04:29:27.441Z,100349.46
2024-05-09T04:34:30.561Z,100351.98
2024-05-09T04:39:33.496Z,100348.33
2024-05-09T04:44:36.376Z,100351.38
2024-05-09T04:49:43.189Z,100349.98
2024-05-09T04:54:46.385Z,100349.06
2024-05-09T04:59:49.655Z,100351.16
2024-05-09T05:04:53.791Z,100353.49
2024-05-09T05:09:56.797Z,100356.23
2024-05-09T05:14:59.648Z,100362.02
2024-05-09T05:20:03.006Z,100364.56
2024-05-09T05:25:07.386Z,100364.48
2024-05-09T05:30:17.553Z,100367.78
2024-05-09T05:35:24.371Z,100364.67
2024-05-09T05:40:33.504Z,100362.94
2024-05-09T05:45:39.952Z,100359.65
2024-05-09T05:50:43.899Z,100366.17
2024-05-09T05:55:46.954Z,100368.30
2024-05-09T06:00:53.019Z,100364.20
2024-05-09T06:05:56.517Z,100360.05
2024-05-09T06:10:59.746Z,100357.93
2024-05-09T06:16:05.033Z,100355.20
2024-05-09T06:21:08.134Z,100358.89
2024-05-09T06:26:11.288Z,100359.61
2024-05-09T06:31:14.463Z,100360.60
2024-05-09T06:36:17.562Z,100360.64
2024-05-09T06:41:20.644Z,100359.05
2024-05-09T06:46:23.792Z,100355.27
2024-05-09T06:51:27.084Z,100353.11
2024-05-09T06:56:30.018Z,100353.36
2024-05-09T07:01:33.221Z,100351.21
2024-05-09T07:06:36.201Z,100352.36
2024-05-09T07:11:39.488Z,100350.16
2024-05-09T07:16:42.655Z,100355.02
2024-05-09T07:21:45.619Z,100354.66
2024-05-09T07:26:48.633Z,100347.65
2024-05-09T07:31:51.778Z,100344.89
2024-05-09T07:36:54.838Z,100343.96
2024-05-09T07:41:57.765Z,100344.58
2024-05-09T07:57:13.000Z,100350.64
2024-05-09T08:02:16.203Z,100351.80
2024-05-09T08:07:20.186Z,100351.05
2024-05-09T08:12:23.343Z,100350.39
2024-05-09T08:17:26.327Z,100346.24
2024-05-09T08:22:32.624Z,100342.52
2024-05-09T08:27:37.013Z,100344.44
2024-05-09T08:32:40.771Z,100342.05
2024-05-09T08:37:43.959Z,100337.91
2024-05-09T08:42:52.435Z,100337.20
2024-05-09T08:47:59.706Z,100337.52
2024-05-09T08:53:02.846Z,100337.00
2024-05-09T08:58:07.556Z,100334.41
2024-05-09T09:03:17.728Z,100331.41
2024-05-09T09:08:22.495Z,100334.77
2024-05-09T09:13:26.672Z,100332.08
2024-05-09T09:18:33.216Z,100332.77
2024-05-09T09:23:36.523Z,100330.98
2024-05-09T09:28:40.868Z,100327.45
2024-05-09T09:33:44.358Z,100323.70
2024-05-09T09:38:48.501Z,100327.96
2024-05-09T09:43:53.497Z,100314.63
2024-05-09T09:48:57.225Z,100316.32
2024-05-09T09:54:03.585Z,100319.41
2024-05-09T09:59:08.725Z,100316.05
2024-05-09T10:04:19.141Z,100313.81
2024-05-09T10:09:23.328Z,100314.34
2024-05-09T10:14:26.963Z,100317.48
2024-05-09T10:19:30.010Z,100314.15
2024-05-09T10:24:50.436Z,100307.91
2024-05-09T10:30:02.822Z,100302.77
2024-05-09T10:35:15.070Z,100305.14
2024-05-09T10:40:26.548Z,100304.20
2024-05-09T10:45:35.925Z,100297.54
2024-05-09T10:50:43.724Z,100295.45
2024-05-09T10:56:00.143Z,100292.20
2024-05-09T11:01:06.772Z,100286.81
2024-05-09T11:06:11.602Z,100285.49
2024-05-09T11:11:15.755Z,100284.14
2024-05-09T11:16:21.251Z,100277.98
2024-05-09T11:21:25.128Z,100271.61
2024-05-09T11:26:29.618Z,100260.46
2024-05-09T11:31:33.122Z,100263.43
2024-05-09T11:36:36.332Z,100260.90
2024-05-09T11:41:39.530Z,100268.83
2024-05-09T11:46:43.576Z,100260.45
2024-05-09T11:51:46.436Z,100258.96
2024-05-09T11:56:51.666Z,100252.52
2024-05-09T12:01:54.936Z,100246.70
2024-05-09T12:06:58.033Z,100243.67
2024-05-09T12:12:01.223Z,100243.50
2024-05-09T12:17:05.768Z,100242.98
2024-05-09T12:22:08.914Z,100237.66
2024-05-09T12:27:12.123Z,100233.87
2024-05-09T12:32:15.124Z,100227.83
2024-05-09T12:37:19.223Z,100224.86
2024-05-09T12:42:27.089Z,100222.71
2024-05-09T12:47:31.657Z,100210.92
2024-05-09T12:52:34.575Z,100206.55
2024-05-09T12:57:37.618Z,100200.27
2024-05-09T13:02:43.122Z,100198.62
2024-05-09T13:07:47.069Z,100193.17
2024-05-09T13:12:50.148Z,100187.41
2024-05-09T13:17:53.526Z,100187.92
2024-05-09T13:22:56.588Z,100185.73
2024-05-09T13:27:59.748Z,100176.78
2024-05-09T13:33:02.830Z,100174.17
2024-05-09T13:38:06.027Z,100166.17
2024-05-09T13:43:09.344Z,100161.05
2024-05-09T13:48:12.890Z,100159.89
2024-05-09T13:53:16.174Z,100156.63
2024-05-09T13:58:19.375Z,100153.64
2024-05-09T14:03:22.658Z,100148.11
2024-05-09T14:08:26.118Z,100146.27
2024-05-09T14:13:29.106Z,100137.46
2024-05-09T14:18:32.516Z,100128.08
2024-05-09T14:23:35.705Z,100129.48
2024-05-09T14:28:38.712Z,100126.30
2024-05-09T14:33:41.919Z,100124.61
2024-05-09T14:38:44.820Z,100124.63
2024-05-09T14:43:47.621Z,100125.13
2024-05-09T14:48:51.669Z,100115.95
2024-05-09T14:53:54.752Z,100107.25
2024-05-09T14:58:58.071Z,100104.80
2024-05-09T15:04:02.548Z,100096.79
2024-05-09T15:09:07.668Z,100091.73
2024-05-09T15:14:10.690Z,100084.45
2024-05-09T15:19:13.805Z,100085.64
2024-05-09T15:24:16.977Z,100086.13
2024-05-09T15:29:19.977Z,100083.48
2024-05-09T15:34:23.002Z,100082.20
2024-05-09T15:39:28.366Z,100074.38
2024-05-09T15:44:31.448Z,100070.79
2024-05-09T15:49:34.761Z,100067.22
2024-05-09T15:54:37.981Z,100069.55
2024-05-09T15:59:41.084Z,100056.81
2024-05-09T16:04:44.098Z,100056.82
2024-05-09T16:09:47.538Z,100057.00
2024-05-09T16:14:51.370Z,100050.19
2024-05-09T16:19:55.583Z,100052.08
2024-05-09T16:24:58.683Z,100054.69
2024-05-09T16:30:05.450Z,100048.63
2024-05-09T16:35:10.596Z,100044.67
2024-05-09T16:40:22.066Z,100039.15
2024-05-09T16:45:33.578Z,100043.17
2024-05-09T16:50:37.503Z,100039.19
2024-05-09T16:55:40.741Z,100039.04
2024-05-09T17:00:44.523Z,100041.61
2024-05-09T17:05:50.754Z,100042.12
2024-05-09T17:10:54.181Z,100042.67
2024-05-09T17:15:57.522Z,100040.23
2024-05-09T17:21:00.375Z,100043.16
2024-05-09T17:26:03.703Z,100041.27
2024-05-09T17:31:07.435Z,100036.15
2024-05-09T17:36:10.607Z,100033.40
2024-05-09T17:41:13.640Z,100033.56
2024-05-09T17:46:17.065Z,100031.23
2024-05-09T17:51:20.239Z,100031.48
2024-05-09T17:56:23.646Z,100035.74
2024-05-09T18:01:26.513Z,100036.44
2024-05-09T18:06:29.786Z,100040.59
2024-05-09T18:11:32.882Z,100042.92
2024-05-09T18:16:36.135Z,100050.15
2024-05-09T18:21:39.382Z,100059.40
2024-05-09T18:26:42.492Z,100059.05
2024-05-09T18:31:45.504Z,100066.39
2024-05-09T18:36:48.749Z,100070.92
2024-05-09T18:41:51.601Z,100076.13
2024-05-09T18:46:55.144Z,100082.92
2024-05-09T18:51:58.298Z,100081.94
2024-05-09T18:57:01.333Z,100085.23
2024-05-09T19:02:04.902Z,100094.81
2024-05-09T19:07:08.741Z,100093.13
2024-05-09T19:12:11.912Z,100092.85
2024-05-09T19:17:15.276Z,100098.84
2024-05-09T19:22:18.403Z,100098.71
2024-05-09T19:27:24.410Z,100093.61
2024-05-09T19:32:27.440Z,100100.15
2024-05-09T19:37:31.822Z,100104.51
2024-05-09T19:42:34.829Z,100110.97
2024-05-09T19:47:38.048Z,100114.23
2024-05-09T19:52:42.394Z,100108.30
2024-05-09T19:57:45.425Z,100114.39
2024-05-09T20:02:48.692Z,100119.27
2024-05-09T20:07:51.887Z,100116.51
2024-05-09T20:12:54.925Z,100112.48
2024-05-09T20:17:58.381Z,100114.46
2024-05-09T20:23:04.799Z,100111.61
2024-05-09T20:28:08.163Z,100112.38
2024-05-09T20:33:12.633Z,100110.27
2024-05-09T20:38:15.848Z,100108.95
2024-05-09T20:43:19.060Z,100107.91
2024-05-09T20:48:22.330Z,100101.35
2024-05-09T20:53:25.480Z,100101.03
2024-05-09T20:58:29.231Z,100096.60
2024-05-09T21:03:32.755Z,100092.50
2024-05-09T21:08:36.352Z,100095.13
2024-05-09T21:13:39.333Z,100095.61
2024-05-09T21:18:42.397Z,100094.00
2024-05-09T21:23:45.784Z,100092.80
2024-05-09T21:28:48.852Z,100093.78
2024-05-09T21:33:52.069Z,100096.79
2024-05-09T21:38:55.266Z,100100.64
2024-05-09T21:43:58.271Z,100102.56
2024-05-09T21:49:01.223Z,100106.62
2024-05-09T21:54:04.299Z,100107.33
2024-05-09T21:59:07.300Z,100109.82
2024-05-09T22:04:11.110Z,100109.20
2024-05-09T22:09:14.416Z,100101.56
2024-05-09T22:14:17.428Z,100102.42
2024-05-09T22:19:21.642Z,100103.81
2024-05-09T22:24:25.084Z,100103.09
2024-05-09T22:35:30.844Z,100098.44
2024-05-09T22:40:44.791Z,100099.83
2024-05-09T22:45:52.683Z,100106.43
2024-05-09T22:50:56.077Z,100107.84
2024-05-09T22:55:59.242Z,100104.05
2024-05-09T23:01:02.647Z,100105.40
2024-05-09T23:06:06.827Z,100103.61
2024-05-09T23:11:10.160Z,100100.16
2024-05-09T23:16:13.909Z,100098.45
2024-05-09T23:21:17.007Z,100093.73
2024-05-09T23:26:20.189Z,100093.89
2024-05-09T23:31:23.572Z,100090.61
2024-05-09T23:36:30.483Z,100085.84
2024-05-09T23:41:33.712Z,100083.43
2024-05-09T23:46:37.000Z,100078.77
2024-05-09T23:51:40.576Z,100078.64
2024-05-09T23:56:43.991Z,100074.00
